sensor_id;sensor_type;location;lat;lon;timestamp;P1;durP1;ratioP1;P2;durP2;ratioP2
13309;SDS011;6723;48.256;16.402;2023-08-30T00:02:10;2.03;;;1.77;;
13309;SDS011;6723;48.256;16.402;2023-08-30T00:04:35;2.20;;;2.00;;
13309;SDS011;6723;48.256;16.402;2023-08-30T00:07:01;2.10;;;2.00;;
13309;SDS011;6723;48.256;16.402;2023-08-30T00:09:27;2.13;;;1.93;;
13309;SDS011;6723;48.256;16.402;2023-08-30T00:11:53;2.30;;;1.60;;
13309;SDS011;6723;48.256;16.402;2023-08-30T00:14:19;1.70;;;1.60;;
13309;SDS011;6723;48.256;16.402;2023-08-30T00:16:44;1.80;;;1.70;;
13309;SDS011;6723;48.256;16.402;2023-08-30T00:19:10;2.00;;;1.80;;
13309;SDS011;6723;48.256;16.402;2023-08-30T00:21:36;2.50;;;1.83;;
13309;SDS011;6723;48.256;16.402;2023-08-30T00:24:02;1.90;;;1.80;;
13309;SDS011;6723;48.256;16.402;2023-08-30T00:26:28;2.00;;;1.80;;
13309;SDS011;6723;48.256;16.402;2023-08-30T00:28:53;2.00;;;1.80;;
13309;SDS011;6723;48.256;16.402;2023-08-30T00:31:19;2.10;;;1.90;;
13309;SDS011;6723;48.256;16.402;2023-08-30T00:33:45;2.03;;;1.80;;
13309;SDS011;6723;48.256;16.402;2023-08-30T00:36:10;2.20;;;1.80;;
13309;SDS011;6723;48.256;16.402;2023-08-30T00:38:36;2.10;;;1.80;;
13309;SDS011;6723;48.256;16.402;2023-08-30T00:41:02;2.20;;;2.00;;
13309;SDS011;6723;48.256;16.402;2023-08-30T00:43:28;1.73;;;1.63;;
13309;SDS011;6723;48.256;16.402;2023-08-30T00:45:54;1.97;;;1.80;;
13309;SDS011;6723;48.256;16.402;2023-08-30T00:48:19;1.80;;;1.70;;
13309;SDS011;6723;48.256;16.402;2023-08-30T00:50:46;3.37;;;1.93;;
13309;SDS011;6723;48.256;16.402;2023-08-30T00:53:12;1.90;;;1.80;;
13309;SDS011;6723;48.256;16.402;2023-08-30T00:55:38;2.33;;;1.80;;
13309;SDS011;6723;48.256;16.402;2023-08-30T00:58:05;2.33;;;2.13;;
13309;SDS011;6723;48.256;16.402;2023-08-30T01:00:31;2.30;;;2.10;;
13309;SDS011;6723;48.256;16.402;2023-08-30T01:02:57;2.17;;;1.77;;
13309;SDS011;6723;48.256;16.402;2023-08-30T01:05:23;1.93;;;1.77;;
13309;SDS011;6723;48.256;16.402;2023-08-30T01:07:52;2.53;;;1.90;;
13309;SDS011;6723;48.256;16.402;2023-08-30T01:10:20;2.07;;;1.83;;
13309;SDS011;6723;48.256;16.402;2023-08-30T01:13:05;2.20;;;1.80;;
13309;SDS011;6723;48.256;16.402;2023-08-30T01:15:35;2.40;;;1.93;;
13309;SDS011;6723;48.256;16.402;2023-08-30T01:18:04;2.30;;;2.07;;
13309;SDS011;6723;48.256;16.402;2023-08-30T01:20:33;2.00;;;1.90;;
13309;SDS011;6723;48.256;16.402;2023-08-30T01:23:06;1.90;;;1.80;;
13309;SDS011;6723;48.256;16.402;2023-08-30T01:28:19;2.07;;;1.87;;
13309;SDS011;6723;48.256;16.402;2023-08-30T01:30:47;1.80;;;1.70;;
13309;SDS011;6723;48.256;16.402;2023-08-30T01:33:13;2.23;;;1.90;;
13309;SDS011;6723;48.256;16.402;2023-08-30T01:35:42;2.23;;;1.87;;
13309;SDS011;6723;48.256;16.402;2023-08-30T01:38:09;1.97;;;1.87;;
13309;SDS011;6723;48.256;16.402;2023-08-30T01:40:36;2.07;;;1.87;;
13309;SDS011;6723;48.256;16.402;2023-08-30T01:43:03;2.17;;;1.97;;
13309;SDS011;6723;48.256;16.402;2023-08-30T01:45:36;2.60;;;1.80;;
13309;SDS011;6723;48.256;16.402;2023-08-30T01:48:04;2.47;;;1.97;;
13309;SDS011;6723;48.256;16.402;2023-08-30T01:50:34;2.60;;;1.73;;
13309;SDS011;6723;48.256;16.402;2023-08-30T01:53:00;2.93;;;2.17;;
13309;SDS011;6723;48.256;16.402;2023-08-30T01:55:28;2.50;;;1.77;;
13309;SDS011;6723;48.256;16.402;2023-08-30T01:57:54;2.23;;;2.00;;
13309;SDS011;6723;48.256;16.402;2023-08-30T02:00:20;1.63;;;1.53;;
13309;SDS011;6723;48.256;16.402;2023-08-30T02:02:46;2.27;;;1.80;;
13309;SDS011;6723;48.256;16.402;2023-08-30T02:05:13;2.97;;;2.00;;
13309;SDS011;6723;48.256;16.402;2023-08-30T02:10:18;2.03;;;1.93;;
13309;SDS011;6723;48.256;16.402;2023-08-30T02:12:53;2.53;;;2.30;;
13309;SDS011;6723;48.256;16.402;2023-08-30T02:15:21;2.60;;;2.40;;
13309;SDS011;6723;48.256;16.402;2023-08-30T02:17:50;5.40;;;2.70;;
13309;SDS011;6723;48.256;16.402;2023-08-30T02:20:17;2.60;;;2.40;;
13309;SDS011;6723;48.256;16.402;2023-08-30T02:22:43;2.67;;;2.37;;
13309;SDS011;6723;48.256;16.402;2023-08-30T02:25:09;3.27;;;2.27;;
13309;SDS011;6723;48.256;16.402;2023-08-30T02:27:35;2.63;;;2.30;;
13309;SDS011;6723;48.256;16.402;2023-08-30T02:30:02;2.53;;;2.33;;
13309;SDS011;6723;48.256;16.402;2023-08-30T02:32:28;4.07;;;2.60;;
13309;SDS011;6723;48.256;16.402;2023-08-30T02:34:55;3.17;;;2.97;;
13309;SDS011;6723;48.256;16.402;2023-08-30T02:37:25;3.20;;;3.00;;
13309;SDS011;6723;48.256;16.402;2023-08-30T02:39:51;3.83;;;2.70;;
13309;SDS011;6723;48.256;16.402;2023-08-30T02:42:17;2.60;;;2.40;;
13309;SDS011;6723;48.256;16.402;2023-08-30T02:44:42;2.87;;;2.63;;
13309;SDS011;6723;48.256;16.402;2023-08-30T02:47:08;3.10;;;2.90;;
13309;SDS011;6723;48.256;16.402;2023-08-30T02:49:34;3.20;;;2.70;;
13309;SDS011;6723;48.256;16.402;2023-08-30T02:52:00;3.57;;;2.87;;
13309;SDS011;6723;48.256;16.402;2023-08-30T02:54:25;2.93;;;2.73;;
13309;SDS011;6723;48.256;16.402;2023-08-30T02:56:51;3.17;;;2.60;;
13309;SDS011;6723;48.256;16.402;2023-08-30T02:59:17;3.60;;;2.67;;
13309;SDS011;6723;48.256;16.402;2023-08-30T03:01:43;3.17;;;2.90;;
13309;SDS011;6723;48.256;16.402;2023-08-30T03:04:08;2.87;;;2.60;;
13309;SDS011;6723;48.256;16.402;2023-08-30T03:06:34;3.10;;;2.77;;
13309;SDS011;6723;48.256;16.402;2023-08-30T03:09:01;2.60;;;2.40;;
13309;SDS011;6723;48.256;16.402;2023-08-30T03:11:28;2.90;;;2.67;;
13309;SDS011;6723;48.256;16.402;2023-08-30T03:13:54;2.70;;;2.50;;
13309;SDS011;6723;48.256;16.402;2023-08-30T03:16:20;2.80;;;2.57;;
13309;SDS011;6723;48.256;16.402;2023-08-30T03:18:47;2.77;;;2.43;;
13309;SDS011;6723;48.256;16.402;2023-08-30T03:21:13;2.63;;;2.43;;
13309;SDS011;6723;48.256;16.402;2023-08-30T03:23:39;3.70;;;2.70;;
13309;SDS011;6723;48.256;16.402;2023-08-30T03:28:36;2.97;;;2.77;;
13309;SDS011;6723;48.256;16.402;2023-08-30T03:31:02;3.00;;;2.30;;
13309;SDS011;6723;48.256;16.402;2023-08-30T03:33:36;2.43;;;2.23;;
13309;SDS011;6723;48.256;16.402;2023-08-30T03:36:02;6.43;;;2.27;;
13309;SDS011;6723;48.256;16.402;2023-08-30T03:38:27;2.57;;;2.37;;
13309;SDS011;6723;48.256;16.402;2023-08-30T03:40:53;2.23;;;2.10;;
13309;SDS011;6723;48.256;16.402;2023-08-30T03:43:19;2.90;;;2.47;;
13309;SDS011;6723;48.256;16.402;2023-08-30T03:45:46;3.60;;;2.20;;
13309;SDS011;6723;48.256;16.402;2023-08-30T03:48:11;3.60;;;2.30;;
13309;SDS011;6723;48.256;16.402;2023-08-30T03:50:37;2.27;;;2.07;;
13309;SDS011;6723;48.256;16.402;2023-08-30T03:53:03;3.53;;;2.20;;
13309;SDS011;6723;48.256;16.402;2023-08-30T03:55:29;2.97;;;2.00;;
13309;SDS011;6723;48.256;16.402;2023-08-30T03:57:54;2.60;;;2.40;;
13309;SDS011;6723;48.256;16.402;2023-08-30T04:00:20;2.00;;;1.90;;
13309;SDS011;6723;48.256;16.402;2023-08-30T04:02:46;3.50;;;2.30;;
13309;SDS011;6723;48.256;16.402;2023-08-30T04:05:12;3.23;;;2.60;;
13309;SDS011;6723;48.256;16.402;2023-08-30T04:07:38;8.53;;;2.47;;
13309;SDS011;6723;48.256;16.402;2023-08-30T04:10:05;2.73;;;2.53;;
13309;SDS011;6723;48.256;16.402;2023-08-30T04:12:32;2.70;;;2.50;;
13309;SDS011;6723;48.256;16.402;2023-08-30T04:15:00;2.70;;;2.50;;
13309;SDS011;6723;48.256;16.402;2023-08-30T04:17:27;3.03;;;2.17;;
13309;SDS011;6723;48.256;16.402;2023-08-30T04:19:53;3.03;;;2.73;;
13309;SDS011;6723;48.256;16.402;2023-08-30T04:22:19;2.83;;;2.57;;
13309;SDS011;6723;48.256;16.402;2023-08-30T04:24:48;2.90;;;2.63;;
13309;SDS011;6723;48.256;16.402;2023-08-30T04:27:14;3.20;;;2.90;;
13309;SDS011;6723;48.256;16.402;2023-08-30T04:29:40;3.63;;;3.33;;
13309;SDS011;6723;48.256;16.402;2023-08-30T04:32:10;3.47;;;3.10;;
13309;SDS011;6723;48.256;16.402;2023-08-30T04:34:36;3.40;;;3.20;;
13309;SDS011;6723;48.256;16.402;2023-08-30T04:37:02;3.70;;;3.40;;
13309;SDS011;6723;48.256;16.402;2023-08-30T04:39:28;5.10;;;3.77;;
13309;SDS011;6723;48.256;16.402;2023-08-30T04:41:54;4.00;;;3.60;;
13309;SDS011;6723;48.256;16.402;2023-08-30T04:44:20;3.90;;;3.60;;
13309;SDS011;6723;48.256;16.402;2023-08-30T04:46:49;3.90;;;3.60;;
13309;SDS011;6723;48.256;16.402;2023-08-30T04:49:17;4.13;;;3.80;;
13309;SDS011;6723;48.256;16.402;2023-08-30T04:51:43;3.87;;;3.57;;
13309;SDS011;6723;48.256;16.402;2023-08-30T04:54:08;4.07;;;3.70;;
13309;SDS011;6723;48.256;16.402;2023-08-30T04:56:34;3.67;;;3.33;;
13309;SDS011;6723;48.256;16.402;2023-08-30T04:59:00;4.40;;;4.00;;
13309;SDS011;6723;48.256;16.402;2023-08-30T05:01:29;4.83;;;3.83;;
13309;SDS011;6723;48.256;16.402;2023-08-30T05:03:55;4.00;;;3.70;;
13309;SDS011;6723;48.256;16.402;2023-08-30T05:06:21;4.23;;;3.90;;
13309;SDS011;6723;48.256;16.402;2023-08-30T05:08:47;4.37;;;4.07;;
13309;SDS011;6723;48.256;16.402;2023-08-30T05:11:12;4.23;;;3.87;;
13309;SDS011;6723;48.256;16.402;2023-08-30T05:13:39;4.53;;;3.90;;
13309;SDS011;6723;48.256;16.402;2023-08-30T05:16:05;4.80;;;4.33;;
13309;SDS011;6723;48.256;16.402;2023-08-30T05:18:30;4.57;;;4.17;;
13309;SDS011;6723;48.256;16.402;2023-08-30T05:20:56;4.13;;;3.80;;
13309;SDS011;6723;48.256;16.402;2023-08-30T05:23:22;5.83;;;4.17;;
13309;SDS011;6723;48.256;16.402;2023-08-30T05:25:48;4.00;;;3.70;;
13309;SDS011;6723;48.256;16.402;2023-08-30T05:28:14;4.50;;;4.10;;
13309;SDS011;6723;48.256;16.402;2023-08-30T05:30:41;4.63;;;4.20;;
13309;SDS011;6723;48.256;16.402;2023-08-30T05:33:09;4.43;;;4.00;;
13309;SDS011;6723;48.256;16.402;2023-08-30T05:35:34;4.93;;;4.00;;
13309;SDS011;6723;48.256;16.402;2023-08-30T05:38:00;4.40;;;4.00;;
13309;SDS011;6723;48.256;16.402;2023-08-30T05:40:26;4.40;;;4.10;;
13309;SDS011;6723;48.256;16.402;2023-08-30T05:42:52;4.57;;;4.17;;
13309;SDS011;6723;48.256;16.402;2023-08-30T05:45:20;4.30;;;4.00;;
13309;SDS011;6723;48.256;16.402;2023-08-30T05:47:46;5.43;;;4.43;;
13309;SDS011;6723;48.256;16.402;2023-08-30T05:50:12;4.33;;;4.03;;
13309;SDS011;6723;48.256;16.402;2023-08-30T05:52:37;5.07;;;4.13;;
13309;SDS011;6723;48.256;16.402;2023-08-30T05:55:09;4.60;;;4.30;;
13309;SDS011;6723;48.256;16.402;2023-08-30T05:57:35;4.67;;;4.27;;
13309;SDS011;6723;48.256;16.402;2023-08-30T06:00:02;4.70;;;4.30;;
13309;SDS011;6723;48.256;16.402;2023-08-30T06:02:30;5.47;;;4.30;;
13309;SDS011;6723;48.256;16.402;2023-08-30T06:04:55;4.57;;;4.17;;
13309;SDS011;6723;48.256;16.402;2023-08-30T06:07:21;4.97;;;4.57;;
13309;SDS011;6723;48.256;16.402;2023-08-30T06:09:47;4.77;;;4.27;;
13309;SDS011;6723;48.256;16.402;2023-08-30T06:12:14;4.70;;;4.30;;
13309;SDS011;6723;48.256;16.402;2023-08-30T06:14:40;5.00;;;4.40;;
13309;SDS011;6723;48.256;16.402;2023-08-30T06:17:15;4.90;;;4.50;;
13309;SDS011;6723;48.256;16.402;2023-08-30T06:19:41;4.20;;;3.90;;
13309;SDS011;6723;48.256;16.402;2023-08-30T06:22:06;5.03;;;4.03;;
13309;SDS011;6723;48.256;16.402;2023-08-30T06:24:32;4.60;;;4.27;;
13309;SDS011;6723;48.256;16.402;2023-08-30T06:26:58;4.60;;;4.20;;
13309;SDS011;6723;48.256;16.402;2023-08-30T06:29:27;5.27;;;4.20;;
13309;SDS011;6723;48.256;16.402;2023-08-30T06:31:55;4.30;;;3.90;;
13309;SDS011;6723;48.256;16.402;2023-08-30T06:34:21;5.13;;;3.80;;
13309;SDS011;6723;48.256;16.402;2023-08-30T06:36:47;4.70;;;4.30;;
13309;SDS011;6723;48.256;16.402;2023-08-30T06:39:13;4.10;;;3.80;;
13309;SDS011;6723;48.256;16.402;2023-08-30T06:41:39;4.80;;;3.40;;
13309;SDS011;6723;48.256;16.402;2023-08-30T06:44:05;4.47;;;4.10;;
13309;SDS011;6723;48.256;16.402;2023-08-30T06:46:31;3.90;;;3.47;;
13309;SDS011;6723;48.256;16.402;2023-08-30T06:48:56;3.70;;;3.40;;
13309;SDS011;6723;48.256;16.402;2023-08-30T06:51:22;3.77;;;3.30;;
13309;SDS011;6723;48.256;16.402;2023-08-30T06:53:48;4.33;;;3.17;;
13309;SDS011;6723;48.256;16.402;2023-08-30T06:56:14;3.60;;;3.27;;
13309;SDS011;6723;48.256;16.402;2023-08-30T06:58:40;3.37;;;3.10;;
13309;SDS011;6723;48.256;16.402;2023-08-30T07:01:05;3.90;;;3.53;;
13309;SDS011;6723;48.256;16.402;2023-08-30T07:03:31;2.97;;;2.77;;
13309;SDS011;6723;48.256;16.402;2023-08-30T07:05:57;2.90;;;2.70;;
13309;SDS011;6723;48.256;16.402;2023-08-30T07:08:22;3.73;;;2.70;;
13309;SDS011;6723;48.256;16.402;2023-08-30T07:10:48;3.00;;;2.80;;
13309;SDS011;6723;48.256;16.402;2023-08-30T07:13:14;2.73;;;2.53;;
13309;SDS011;6723;48.256;16.402;2023-08-30T07:15:40;2.77;;;2.57;;
13309;SDS011;6723;48.256;16.402;2023-08-30T07:18:07;3.33;;;3.03;;
13309;SDS011;6723;48.256;16.402;2023-08-30T07:20:34;2.90;;;2.60;;
13309;SDS011;6723;48.256;16.402;2023-08-30T07:23:02;2.40;;;2.20;;
13309;SDS011;6723;48.256;16.402;2023-08-30T07:25:31;2.60;;;2.40;;
13309;SDS011;6723;48.256;16.402;2023-08-30T07:28:02;2.20;;;2.03;;
13309;SDS011;6723;48.256;16.402;2023-08-30T07:30:29;2.60;;;2.10;;
13309;SDS011;6723;48.256;16.402;2023-08-30T07:32:54;2.50;;;2.30;;
13309;SDS011;6723;48.256;16.402;2023-08-30T07:35:21;2.40;;;2.20;;
13309;SDS011;6723;48.256;16.402;2023-08-30T07:37:47;2.33;;;2.20;;
13309;SDS011;6723;48.256;16.402;2023-08-30T07:40:13;2.20;;;2.10;;
13309;SDS011;6723;48.256;16.402;2023-08-30T07:42:39;2.40;;;2.20;;
13309;SDS011;6723;48.256;16.402;2023-08-30T07:45:05;2.17;;;2.07;;
13309;SDS011;6723;48.256;16.402;2023-08-30T07:47:32;2.10;;;2.00;;
13309;SDS011;6723;48.256;16.402;2023-08-30T07:49:57;2.40;;;2.20;;
13309;SDS011;6723;48.256;16.402;2023-08-30T07:52:23;2.67;;;2.47;;
13309;SDS011;6723;48.256;16.402;2023-08-30T07:54:49;2.40;;;2.20;;
13309;SDS011;6723;48.256;16.402;2023-08-30T07:57:15;2.50;;;2.30;;
13309;SDS011;6723;48.256;16.402;2023-08-30T07:59:40;4.17;;;1.90;;
13309;SDS011;6723;48.256;16.402;2023-08-30T08:02:06;2.30;;;2.10;;
13309;SDS011;6723;48.256;16.402;2023-08-30T08:04:33;2.37;;;1.80;;
13309;SDS011;6723;48.256;16.402;2023-08-30T08:07:00;2.00;;;1.90;;
13309;SDS011;6723;48.256;16.402;2023-08-30T08:09:26;2.20;;;2.10;;
13309;SDS011;6723;48.256;16.402;2023-08-30T08:11:52;2.30;;;1.90;;
13309;SDS011;6723;48.256;16.402;2023-08-30T08:14:18;2.67;;;2.00;;
13309;SDS011;6723;48.256;16.402;2023-08-30T08:16:44;2.20;;;2.00;;
13309;SDS011;6723;48.256;16.402;2023-08-30T08:19:10;2.57;;;2.00;;
13309;SDS011;6723;48.256;16.402;2023-08-30T08:21:37;1.80;;;1.70;;
13309;SDS011;6723;48.256;16.402;2023-08-30T08:24:03;2.10;;;1.90;;
13309;SDS011;6723;48.256;16.402;2023-08-30T08:26:29;2.00;;;1.80;;
13309;SDS011;6723;48.256;16.402;2023-08-30T08:28:55;1.67;;;1.57;;
13309;SDS011;6723;48.256;16.402;2023-08-30T08:31:21;1.50;;;1.40;;
13309;SDS011;6723;48.256;16.402;2023-08-30T08:33:51;1.87;;;1.70;;
13309;SDS011;6723;48.256;16.402;2023-08-30T08:36:30;3.20;;;1.30;;
13309;SDS011;6723;48.256;16.402;2023-08-30T08:38:56;1.50;;;1.40;;
13309;SDS011;6723;48.256;16.402;2023-08-30T08:41:22;1.37;;;1.30;;
13309;SDS011;6723;48.256;16.402;2023-08-30T08:43:56;1.53;;;1.43;;
13309;SDS011;6723;48.256;16.402;2023-08-30T08:46:23;1.87;;;1.57;;
13309;SDS011;6723;48.256;16.402;2023-08-30T08:48:51;1.50;;;1.40;;
13309;SDS011;6723;48.256;16.402;2023-08-30T08:51:19;2.43;;;1.40;;
13309;SDS011;6723;48.256;16.402;2023-08-30T08:53:46;1.37;;;1.27;;
13309;SDS011;6723;48.256;16.402;2023-08-30T08:56:13;1.30;;;1.20;;
13309;SDS011;6723;48.256;16.402;2023-08-30T08:58:40;1.00;;;1.00;;
13309;SDS011;6723;48.256;16.402;2023-08-30T09:01:07;1.43;;;1.23;;
13309;SDS011;6723;48.256;16.402;2023-08-30T09:03:34;1.10;;;1.00;;
13309;SDS011;6723;48.256;16.402;2023-08-30T09:06:00;1.30;;;1.00;;
13309;SDS011;6723;48.256;16.402;2023-08-30T09:08:28;2.23;;;1.50;;
13309;SDS011;6723;48.256;16.402;2023-08-30T09:10:54;1.43;;;1.20;;
13309;SDS011;6723;48.256;16.402;2023-08-30T09:13:19;1.00;;;1.00;;
13309;SDS011;6723;48.256;16.402;2023-08-30T09:15:48;1.13;;;1.03;;
13309;SDS011;6723;48.256;16.402;2023-08-30T09:18:14;1.00;;;1.00;;
13309;SDS011;6723;48.256;16.402;2023-08-30T09:20:44;1.73;;;0.80;;
13309;SDS011;6723;48.256;16.402;2023-08-30T09:23:19;1.20;;;1.00;;
13309;SDS011;6723;48.256;16.402;2023-08-30T09:25:46;1.23;;;1.13;;
13309;SDS011;6723;48.256;16.402;2023-08-30T09:28:12;1.57;;;1.30;;
13309;SDS011;6723;48.256;16.402;2023-08-30T09:30:38;0.80;;;0.80;;
13309;SDS011;6723;48.256;16.402;2023-08-30T09:33:04;1.33;;;1.10;;
13309;SDS011;6723;48.256;16.402;2023-08-30T09:35:31;1.57;;;0.90;;
13309;SDS011;6723;48.256;16.402;2023-08-30T09:37:57;1.10;;;1.00;;
13309;SDS011;6723;48.256;16.402;2023-08-30T09:40:23;1.50;;;1.00;;
13309;SDS011;6723;48.256;16.402;2023-08-30T09:42:49;2.00;;;1.10;;
13309;SDS011;6723;48.256;16.402;2023-08-30T09:45:21;1.03;;;0.90;;
13309;SDS011;6723;48.256;16.402;2023-08-30T09:47:50;1.73;;;1.10;;
13309;SDS011;6723;48.256;16.402;2023-08-30T09:50:18;1.90;;;0.90;;
13309;SDS011;6723;48.256;16.402;2023-08-30T09:52:47;1.00;;;1.00;;
13309;SDS011;6723;48.256;16.402;2023-08-30T09:55:16;1.10;;;1.10;;
13309;SDS011;6723;48.256;16.402;2023-08-30T09:57:44;0.90;;;0.90;;
13309;SDS011;6723;48.256;16.402;2023-08-30T10:00:10;1.20;;;1.10;;
13309;SDS011;6723;48.256;16.402;2023-08-30T10:02:42;1.10;;;1.00;;
13309;SDS011;6723;48.256;16.402;2023-08-30T10:05:09;1.60;;;1.00;;
13309;SDS011;6723;48.256;16.402;2023-08-30T10:07:37;1.20;;;1.10;;
13309;SDS011;6723;48.256;16.402;2023-08-30T10:10:04;1.10;;;1.10;;
13309;SDS011;6723;48.256;16.402;2023-08-30T10:12:33;1.30;;;0.90;;
13309;SDS011;6723;48.256;16.402;2023-08-30T10:14:59;0.80;;;0.80;;
13309;SDS011;6723;48.256;16.402;2023-08-30T10:17:27;1.30;;;0.90;;
13309;SDS011;6723;48.256;16.402;2023-08-30T10:19:55;0.97;;;0.83;;
13309;SDS011;6723;48.256;16.402;2023-08-30T10:22:22;1.30;;;0.80;;
13309;SDS011;6723;48.256;16.402;2023-08-30T10:25:02;1.30;;;0.97;;
13309;SDS011;6723;48.256;16.402;2023-08-30T10:27:33;1.17;;;1.07;;
13309;SDS011;6723;48.256;16.402;2023-08-30T10:30:02;1.10;;;0.90;;
13309;SDS011;6723;48.256;16.402;2023-08-30T10:32:31;2.37;;;0.80;;
13309;SDS011;6723;48.256;16.402;2023-08-30T10:35:00;2.37;;;0.90;;
13309;SDS011;6723;48.256;16.402;2023-08-30T10:37:28;0.80;;;0.80;;
13309;SDS011;6723;48.256;16.402;2023-08-30T10:39:59;0.87;;;0.87;;
13309;SDS011;6723;48.256;16.402;2023-08-30T10:42:28;1.63;;;1.00;;
13309;SDS011;6723;48.256;16.402;2023-08-30T10:47:29;1.30;;;0.80;;
13309;SDS011;6723;48.256;16.402;2023-08-30T10:49:57;1.40;;;0.90;;
13309;SDS011;6723;48.256;16.402;2023-08-30T10:52:29;1.53;;;1.40;;
13309;SDS011;6723;48.256;16.402;2023-08-30T10:55:08;1.50;;;1.40;;
13309;SDS011;6723;48.256;16.402;2023-08-30T10:57:43;1.00;;;0.90;;
13309;SDS011;6723;48.256;16.402;2023-08-30T11:00:22;2.27;;;1.20;;
13309;SDS011;6723;48.256;16.402;2023-08-30T11:02:49;3.07;;;1.20;;
13309;SDS011;6723;48.256;16.402;2023-08-30T11:05:16;0.80;;;0.80;;
13309;SDS011;6723;48.256;16.402;2023-08-30T11:07:43;0.90;;;0.83;;
13309;SDS011;6723;48.256;16.402;2023-08-30T11:10:10;0.80;;;0.80;;
13309;SDS011;6723;48.256;16.402;2023-08-30T11:12:36;1.20;;;1.07;;
13309;SDS011;6723;48.256;16.402;2023-08-30T11:15:06;1.07;;;0.80;;
13309;SDS011;6723;48.256;16.402;2023-08-30T11:17:33;0.97;;;0.80;;
13309;SDS011;6723;48.256;16.402;2023-08-30T11:20:06;1.40;;;1.10;;
13309;SDS011;6723;48.256;16.402;2023-08-30T11:22:34;2.20;;;0.90;;
13309;SDS011;6723;48.256;16.402;2023-08-30T11:25:02;2.80;;;1.10;;
13309;SDS011;6723;48.256;16.402;2023-08-30T11:27:29;4.50;;;1.10;;
13309;SDS011;6723;48.256;16.402;2023-08-30T11:29:58;2.97;;;1.07;;
13309;SDS011;6723;48.256;16.402;2023-08-30T11:32:37;3.70;;;1.30;;
13309;SDS011;6723;48.256;16.402;2023-08-30T11:35:04;1.90;;;0.90;;
13309;SDS011;6723;48.256;16.402;2023-08-30T11:37:31;1.20;;;1.07;;
13309;SDS011;6723;48.256;16.402;2023-08-30T11:39:58;0.90;;;0.90;;
13309;SDS011;6723;48.256;16.402;2023-08-30T11:42:26;1.90;;;0.90;;
13309;SDS011;6723;48.256;16.402;2023-08-30T11:44:52;1.33;;;1.10;;
13309;SDS011;6723;48.256;16.402;2023-08-30T11:47:19;1.50;;;1.40;;
13309;SDS011;6723;48.256;16.402;2023-08-30T11:49:48;1.67;;;1.57;;
13309;SDS011;6723;48.256;16.402;2023-08-30T11:52:15;2.13;;;1.60;;
13309;SDS011;6723;48.256;16.402;2023-08-30T11:54:43;1.57;;;1.37;;
13309;SDS011;6723;48.256;16.402;2023-08-30T11:57:09;3.00;;;1.10;;
13309;SDS011;6723;48.256;16.402;2023-08-30T11:59:36;1.13;;;1.10;;
13309;SDS011;6723;48.256;16.402;2023-08-30T12:02:02;1.13;;;1.03;;
13309;SDS011;6723;48.256;16.402;2023-08-30T12:04:29;3.30;;;1.20;;
13309;SDS011;6723;48.256;16.402;2023-08-30T12:06:56;5.27;;;1.30;;
13309;SDS011;6723;48.256;16.402;2023-08-30T12:09:22;2.50;;;1.27;;
13309;SDS011;6723;48.256;16.402;2023-08-30T12:11:51;1.40;;;1.30;;
13309;SDS011;6723;48.256;16.402;2023-08-30T12:14:17;1.07;;;1.07;;
13309;SDS011;6723;48.256;16.402;2023-08-30T12:16:42;1.50;;;1.40;;
13309;SDS011;6723;48.256;16.402;2023-08-30T12:19:11;1.47;;;1.37;;
13309;SDS011;6723;48.256;16.402;2023-08-30T12:21:44;1.30;;;1.20;;
13309;SDS011;6723;48.256;16.402;2023-08-30T12:24:12;1.70;;;1.60;;
13309;SDS011;6723;48.256;16.402;2023-08-30T12:26:38;1.80;;;1.70;;
13309;SDS011;6723;48.256;16.402;2023-08-30T12:29:04;1.60;;;1.50;;
13309;SDS011;6723;48.256;16.402;2023-08-30T12:31:34;2.07;;;1.40;;
13309;SDS011;6723;48.256;16.402;2023-08-30T12:33:59;2.77;;;1.80;;
13309;SDS011;6723;48.256;16.402;2023-08-30T12:36:25;1.77;;;1.67;;
13309;SDS011;6723;48.256;16.402;2023-08-30T12:38:51;1.77;;;1.67;;
13309;SDS011;6723;48.256;16.402;2023-08-30T12:41:17;1.73;;;1.63;;
13309;SDS011;6723;48.256;16.402;2023-08-30T12:43:43;1.90;;;1.80;;
13309;SDS011;6723;48.256;16.402;2023-08-30T12:46:08;2.33;;;1.73;;
13309;SDS011;6723;48.256;16.402;2023-08-30T12:48:34;2.23;;;1.73;;
13309;SDS011;6723;48.256;16.402;2023-08-30T12:51:00;3.00;;;1.73;;
13309;SDS011;6723;48.256;16.402;2023-08-30T12:53:25;1.80;;;1.60;;
13309;SDS011;6723;48.256;16.402;2023-08-30T12:55:51;1.60;;;1.50;;
13309;SDS011;6723;48.256;16.402;2023-08-30T12:58:17;1.70;;;1.60;;
13309;SDS011;6723;48.256;16.402;2023-08-30T13:00:42;1.40;;;1.30;;
13309;SDS011;6723;48.256;16.402;2023-08-30T13:03:08;1.60;;;1.50;;
13309;SDS011;6723;48.256;16.402;2023-08-30T13:05:34;1.90;;;1.80;;
13309;SDS011;6723;48.256;16.402;2023-08-30T13:08:01;1.80;;;1.70;;
13309;SDS011;6723;48.256;16.402;2023-08-30T13:10:27;1.60;;;1.50;;
13309;SDS011;6723;48.256;16.402;2023-08-30T13:12:53;1.60;;;1.50;;
13309;SDS011;6723;48.256;16.402;2023-08-30T13:15:20;2.07;;;1.70;;
13309;SDS011;6723;48.256;16.402;2023-08-30T13:17:46;1.60;;;1.50;;
13309;SDS011;6723;48.256;16.402;2023-08-30T13:20:11;3.03;;;1.80;;
13309;SDS011;6723;48.256;16.402;2023-08-30T13:22:38;2.80;;;1.67;;
13309;SDS011;6723;48.256;16.402;2023-08-30T13:25:04;1.50;;;1.40;;
13309;SDS011;6723;48.256;16.402;2023-08-30T13:27:30;2.90;;;1.40;;
13309;SDS011;6723;48.256;16.402;2023-08-30T13:29:56;1.63;;;1.53;;
13309;SDS011;6723;48.256;16.402;2023-08-30T13:32:21;1.30;;;1.20;;
13309;SDS011;6723;48.256;16.402;2023-08-30T13:34:47;2.13;;;1.40;;
13309;SDS011;6723;48.256;16.402;2023-08-30T13:37:14;1.83;;;1.00;;
13309;SDS011;6723;48.256;16.402;2023-08-30T13:39:40;1.50;;;1.20;;
13309;SDS011;6723;48.256;16.402;2023-08-30T13:42:06;1.47;;;1.37;;
13309;SDS011;6723;48.256;16.402;2023-08-30T13:44:32;1.30;;;1.07;;
13309;SDS011;6723;48.256;16.402;2023-08-30T13:47:01;1.10;;;1.00;;
13309;SDS011;6723;48.256;16.402;2023-08-30T13:49:26;0.90;;;0.90;;
13309;SDS011;6723;48.256;16.402;2023-08-30T13:51:52;1.40;;;1.30;;
13309;SDS011;6723;48.256;16.402;2023-08-30T13:54:19;1.60;;;1.40;;
13309;SDS011;6723;48.256;16.402;2023-08-30T13:56:45;2.03;;;1.20;;
13309;SDS011;6723;48.256;16.402;2023-08-30T13:59:10;2.63;;;1.33;;
13309;SDS011;6723;48.256;16.402;2023-08-30T14:01:36;2.23;;;1.27;;
13309;SDS011;6723;48.256;16.402;2023-08-30T14:04:02;2.77;;;1.50;;
13309;SDS011;6723;48.256;16.402;2023-08-30T14:06:31;2.03;;;1.27;;
13309;SDS011;6723;48.256;16.402;2023-08-30T14:08:57;1.30;;;1.20;;
13309;SDS011;6723;48.256;16.402;2023-08-30T14:11:23;1.30;;;1.20;;
13309;SDS011;6723;48.256;16.402;2023-08-30T14:13:49;1.40;;;1.00;;
13309;SDS011;6723;48.256;16.402;2023-08-30T14:16:16;1.00;;;1.00;;
13309;SDS011;6723;48.256;16.402;2023-08-30T14:18:42;1.73;;;1.30;;
13309;SDS011;6723;48.256;16.402;2023-08-30T14:21:08;1.17;;;1.00;;
13309;SDS011;6723;48.256;16.402;2023-08-30T14:23:34;1.43;;;1.20;;
13309;SDS011;6723;48.256;16.402;2023-08-30T14:26:02;1.87;;;1.10;;
13309;SDS011;6723;48.256;16.402;2023-08-30T14:28:35;1.10;;;1.00;;
13309;SDS011;6723;48.256;16.402;2023-08-30T14:31:02;1.53;;;1.10;;
13309;SDS011;6723;48.256;16.402;2023-08-30T14:33:31;1.37;;;1.10;;
13309;SDS011;6723;48.256;16.402;2023-08-30T14:35:57;1.30;;;1.07;;
13309;SDS011;6723;48.256;16.402;2023-08-30T14:38:22;2.90;;;1.30;;
13309;SDS011;6723;48.256;16.402;2023-08-30T14:40:58;1.33;;;1.20;;
13309;SDS011;6723;48.256;16.402;2023-08-30T14:43:25;1.90;;;1.00;;
13309;SDS011;6723;48.256;16.402;2023-08-30T14:45:51;1.30;;;1.20;;
13309;SDS011;6723;48.256;16.402;2023-08-30T14:48:24;1.53;;;1.30;;
13309;SDS011;6723;48.256;16.402;2023-08-30T14:50:50;1.40;;;1.30;;
13309;SDS011;6723;48.256;16.402;2023-08-30T14:53:16;1.83;;;1.60;;
13309;SDS011;6723;48.256;16.402;2023-08-30T14:55:44;1.40;;;1.30;;
13309;SDS011;6723;48.256;16.402;2023-08-30T14:58:10;1.37;;;1.20;;